Time;durP1;ratioP1;P1;durP2;ratioP2;P2;SDS_P1;SDS_P2;PMS_P1;PMS_P2;Temp;Humidity;BMP_temperature;BMP_pressure;BME280_temperature;BME280_humidity;BME280_pressure;Samples;Min_cycle;Max_cycle;Signal;HPM_P1;HPM_P2
2021/11/15 00:02:17;;;;;;;;;;;;;;;27.57;63.76;100895.81;5028234;28;70480;-34
2021/11/15 00:04:48;;;;;;;;;;;;;;;27.68;64.76;100895.25;5035846;28;66375;-35
2021/11/15 00:07:18;;;;;;;;;;;;;;;27.75;66.02;100903.34;5033056;28;70159;-35
2021/11/15 00:09:48;;;;;;;;;;;;;;;27.81;67.82;100913.41;5038657;28;66634;-35
2021/11/15 00:12:19;;;;;;;;;;;;;;;27.87;67.85;100918.00;5038875;28;69296;-34
2021/11/15 00:14:49;;;;;;;;;;;;;;;27.85;72.06;100920.88;5052289;28;65572;-36
2021/11/15 00:17:23;;;;;;;;;;;;;;;27.84;70.97;100929.19;5034182;28;69753;-35
2021/11/15 00:19:55;;;;;;;;;;;;;;;27.83;73.53;100927.50;5039081;28;66202;-36
2021/11/15 00:22:25;;;;;;;;;;;;;;;27.82;74.41;100931.22;5036924;28;69281;-36
2021/11/15 00:24:56;;;;;;;;;;;;;;;27.82;75.54;100929.38;5040948;28;66483;-36
2021/11/15 00:27:30;;;;;;;;;;;;;;;27.80;74.56;100927.88;5038417;28;69321;-35
2021/11/15 00:30:03;;;;;;;;;;;;;;;27.82;74.09;100936.63;5037759;28;66769;-35
2021/11/15 00:32:46;;;;;;;;;;;;;;;27.92;72.04;100934.41;5034954;28;69862;-34
2021/11/15 00:35:36;;;;;;;;;;;;;;;28.01;72.11;100924.28;5033515;28;67168;-35
2021/11/15 00:38:12;;;;;;;;;;;;;;;27.99;70.81;100921.78;5013881;28;69267;-35
2021/11/15 00:41:02;;;;;;;;;;;;;;;28.07;70.37;100923.47;5033521;28;66619;-34
2021/11/15 00:43:55;;;;;;;;;;;;;;;28.11;69.83;100932.00;5036458;28;69324;-35
2021/11/15 00:46:32;;;;;;;;;;;;;;;28.14;69.48;100934.28;5053323;28;65642;-35
2021/11/15 00:49:09;;;;;;;;;;;;;;;28.18;69.08;100938.25;5035378;28;70379;-35
2021/11/15 00:52:03;;;;;;;;;;;;;;;28.20;69.29;100937.03;5034424;28;65878;-34
2021/11/15 00:54:40;;;;;;;;;;;;;;;28.23;69.21;100942.03;5033945;28;69119;-35
2021/11/15 00:57:36;;;;;;;;;;;;;;;28.26;68.72;100948.88;5028391;28;65795;-34
2021/11/15 01:00:17;;;;;;;;;;;;;;;28.29;68.74;100948.47;5017351;28;69282;-36
2021/11/15 01:03:13;;;;;;;;;;;;;;;28.26;68.78;100940.78;5036179;28;66750;-36
2021/11/15 01:06:26;;;;;;;;;;;;;;;28.34;68.38;100946.00;5035945;28;70139;-36
2021/11/15 01:09:13;;;;;;;;;;;;;;;28.36;68.17;100943.97;5035836;28;66335;-37
2021/11/15 01:11:59;;;;;;;;;;;;;;;28.38;68.36;100949.97;5032811;28;70565;-35
2021/11/15 01:14:46;;;;;;;;;;;;;;;28.40;67.94;100952.47;5029773;28;66165;-35
2021/11/15 01:18:20;;;;;;;;;;;;;;;28.42;68.38;100956.66;5027408;28;70002;-35
2021/11/15 01:21:15;;;;;;;;;;;;;;;28.45;68.28;100958.13;5032747;28;66911;-35
2021/11/15 01:24:37;;;;;;;;;;;;;;;28.47;67.94;100965.00;5030676;28;69390;-36
2021/11/15 01:27:39;;;;;;;;;;;;;;;28.49;67.96;100971.00;5035367;28;65416;-35
2021/11/15 01:30:27;;;;;;;;;;;;;;;28.51;67.80;100968.94;5013640;28;63336;-35
2021/11/15 01:33:17;;;;;;;;;;;;;;;28.54;68.05;100973.09;5032108;28;65438;-35
2021/11/15 01:36:12;;;;;;;;;;;;;;;28.58;67.62;100978.91;5032924;28;70017;-34
2021/11/15 01:38:58;;;;;;;;;;;;;;;28.60;67.48;100971.44;5032427;28;65184;-34
2021/11/15 01:41:56;;;;;;;;;;;;;;;28.61;67.34;100971.25;5033031;28;69691;-35
2021/11/15 01:44:54;;;;;;;;;;;;;;;28.64;67.49;100973.56;5019781;28;65799;-34
2021/11/15 01:47:54;;;;;;;;;;;;;;;28.67;67.20;100961.53;5098177;27;43797;-38
2021/11/15 01:50:39;;;;;;;;;;;;;;;28.46;67.45;100922.84;5085548;27;71662;-39
2021/11/15 01:53:27;;;;;;;;;;;;;;;28.72;67.29;100959.03;5082608;27;66576;-38
2021/11/15 01:56:21;;;;;;;;;;;;;;;28.74;67.22;100960.47;5084975;27;70551;-36
2021/11/15 01:59:14;;;;;;;;;;;;;;;28.76;67.00;100954.91;5084125;27;66136;-39
2021/11/15 02:02:02;;;;;;;;;;;;;;;28.79;66.99;100953.66;5090750;27;69063;-38
2021/11/15 02:04:59;;;;;;;;;;;;;;;28.81;67.30;100949.72;5091772;27;66377;-37
2021/11/15 02:07:34;;;;;;;;;;;;;;;28.84;67.26;100952.00;5073052;27;70259;-39
2021/11/15 02:10:35;;;;;;;;;;;;;;;28.87;67.14;100951.59;5088827;27;66333;-37
2021/11/15 02:13:29;;;;;;;;;;;;;;;28.89;67.12;100954.94;5077677;27;69128;-39
2021/11/15 02:16:19;;;;;;;;;;;;;;;28.92;67.11;100935.59;5081886;27;67019;-37
2021/11/15 02:19:09;;;;;;;;;;;;;;;28.95;66.62;100948.69;5071838;27;70155;-40
2021/11/15 02:21:56;;;;;;;;;;;;;;;28.98;66.59;100935.81;5034908;27;66750;-36
2021/11/15 02:25:02;;;;;;;;;;;;;;;28.90;66.66;100929.56;5067825;27;70787;-37
2021/11/15 02:28:10;;;;;;;;;;;;;;;29.04;66.86;100954.75;5066726;27;66768;-37
2021/11/15 02:31:13;;;;;;;;;;;;;;;29.07;66.40;100954.34;5065180;27;70301;-37
2021/11/15 02:34:03;;;;;;;;;;;;;;;29.10;66.64;100951.22;5067100;27;65703;-36
2021/11/15 02:37:01;;;;;;;;;;;;;;;29.14;66.73;100946.22;5041923;28;70090;-37
2021/11/15 02:39:38;;;;;;;;;;;;;;;29.16;66.48;100944.16;5063170;27;66130;-37
2021/11/15 02:42:50;;;;;;;;;;;;;;;29.19;66.17;100949.16;5049640;27;70091;-37
2021/11/15 02:45:25;;;;;;;;;;;;;;;29.22;66.05;100946.03;5064107;27;65652;-38
2021/11/15 02:48:15;;;;;;;;;;;;;;;29.19;66.50;100938.34;5079145;27;69234;-36
2021/11/15 02:50:50;;;;;;;;;;;;;;;29.27;66.28;100946.25;5085234;27;65260;-36
2021/11/15 02:53:49;;;;;;;;;;;;;;;29.31;66.42;100942.09;5083983;27;70234;-37
2021/11/15 02:56:24;;;;;;;;;;;;;;;29.32;66.04;100935.66;5083239;27;66833;-37
2021/11/15 02:59:33;;;;;;;;;;;;;;;29.35;66.24;100940.63;5073548;27;69025;-36
2021/11/15 03:02:17;;;;;;;;;;;;;;;29.38;65.74;100940.22;5072564;27;66248;-36
2021/11/15 03:05:28;;;;;;;;;;;;;;;29.42;66.08;100939.78;5072031;27;69660;-40
2021/11/15 03:08:04;;;;;;;;;;;;;;;29.44;66.20;100935.84;5070584;27;66376;-37
2021/11/15 03:10:41;;;;;;;;;;;;;;;29.35;65.52;100912.78;5071219;27;70424;-36
2021/11/15 03:13:20;;;;;;;;;;;;;;;29.49;65.47;100922.53;5074864;27;66902;-37
2021/11/15 03:16:03;;;;;;;;;;;;;;;29.53;65.46;100920.25;5071451;27;69949;-36
2021/11/15 03:18:41;;;;;;;;;;;;;;;29.56;65.55;100922.50;5075992;27;66693;-36
2021/11/15 03:21:21;;;;;;;;;;;;;;;29.58;65.78;100915.03;5060117;28;70299;-36
2021/11/15 03:23:56;;;;;;;;;;;;;;;29.62;65.81;100913.59;5076894;27;66513;-35
2021/11/15 03:26:29;;;;;;;;;;;;;;;29.65;65.80;100915.91;5077537;27;70834;-39
2021/11/15 03:29:02;;;;;;;;;;;;;;;29.68;65.71;100904.66;5075440;27;66637;-37
2021/11/15 03:31:37;;;;;;;;;;;;;;;29.70;65.21;100908.00;5074791;27;70267;-37
2021/11/15 03:34:11;;;;;;;;;;;;;;;29.74;65.20;100898.41;5072090;27;65832;-37
2021/11/15 03:36:43;;;;;;;;;;;;;;;29.77;64.96;100902.56;5070367;27;70262;-37
2021/11/15 03:39:16;;;;;;;;;;;;;;;29.79;65.42;100890.47;5072279;27;65992;-37
2021/11/15 03:41:47;;;;;;;;;;;;;;;29.82;64.78;100890.06;5074688;27;70179;-37
2021/11/15 03:44:23;;;;;;;;;;;;;;;29.84;64.77;100882.56;5070123;27;65362;-37
2021/11/15 03:46:53;;;;;;;;;;;;;;;29.88;64.91;100880.25;5072421;27;70624;-37
2021/11/15 03:49:51;;;;;;;;;;;;;;;29.91;64.76;100862.78;5071036;27;66098;-37
2021/11/15 03:52:22;;;;;;;;;;;;;;;29.95;65.18;100878.38;5055704;27;70526;-37
2021/11/15 03:54:52;;;;;;;;;;;;;;;29.97;65.15;100868.16;5069948;27;66352;-49
2021/11/15 03:57:22;;;;;;;;;;;;;;;30.01;64.53;100871.28;5059286;28;70165;-36
2021/11/15 03:59:53;;;;;;;;;;;;;;;30.03;64.48;100864.63;5072654;27;66530;-37
2021/11/15 04:02:27;;;;;;;;;;;;;;;30.07;64.54;100865.00;5075118;27;70165;-38
2021/11/15 04:05:01;;;;;;;;;;;;;;;30.10;64.45;100859.16;5077001;27;65642;-36
2021/11/15 04:07:42;;;;;;;;;;;;;;;30.14;64.40;100849.56;5069259;27;70254;-37
2021/11/15 04:10:14;;;;;;;;;;;;;;;30.16;64.23;100847.47;5063994;27;66885;-36
2021/11/15 04:12:45;;;;;;;;;;;;;;;30.20;64.67;100842.44;5067983;27;68958;-36
2021/11/15 04:15:25;;;;;;;;;;;;;;;30.21;64.75;100853.06;5070465;27;65880;-38
2021/11/15 04:17:58;;;;;;;;;;;;;;;30.18;64.20;100842.69;5073528;27;70194;-37
2021/11/15 04:20:30;;;;;;;;;;;;;;;30.27;64.27;100836.00;5064467;27;66110;-36
2021/11/15 04:23:01;;;;;;;;;;;;;;;30.30;64.49;100825.78;5071596;27;69500;-36
2021/11/15 04:25:31;;;;;;;;;;;;;;;30.32;64.42;100818.28;5056927;28;66236;-36
2021/11/15 04:28:02;;;;;;;;;;;;;;;30.34;64.14;100802.63;5075297;27;70351;-37
2021/11/15 04:30:32;;;;;;;;;;;;;;;30.37;64.28;100804.91;5073303;27;66824;-37
2021/11/15 04:33:04;;;;;;;;;;;;;;;30.35;64.02;100796.19;5070979;27;70134;-37
2021/11/15 04:35:35;;;;;;;;;;;;;;;30.42;64.24;100794.25;5074354;27;66009;-38
2021/11/15 04:38:06;;;;;;;;;;;;;;;30.44;64.52;100779.47;5076913;27;70722;-38
2021/11/15 04:40:38;;;;;;;;;;;;;;;30.45;64.62;100778.44;5072929;27;66226;-39
2021/11/15 04:43:17;;;;;;;;;;;;;;;30.48;64.23;100769.03;5071869;27;70350;-38
2021/11/15 04:45:48;;;;;;;;;;;;;;;30.49;63.90;100765.28;5065891;27;65794;-37
2021/11/15 04:48:18;;;;;;;;;;;;;;;30.51;64.40;100763.19;5067053;27;69695;-35
2021/11/15 04:50:48;;;;;;;;;;;;;;;30.54;64.30;100765.44;5071524;27;65477;-36
2021/11/15 04:53:19;;;;;;;;;;;;;;;30.56;63.89;100754.38;5068246;27;69635;-37
2021/11/15 04:55:49;;;;;;;;;;;;;;;30.59;64.22;100754.78;5073435;27;65714;-38
2021/11/15 04:58:20;;;;;;;;;;;;;;;30.61;64.10;100749.97;5075288;27;69237;-37
2021/11/15 05:00:51;;;;;;;;;;;;;;;30.63;64.06;100747.88;5068718;27;66623;-36
2021/11/15 05:03:21;;;;;;;;;;;;;;;30.65;63.62;100748.47;5067641;27;70019;-37
2021/11/15 05:05:52;;;;;;;;;;;;;;;30.67;63.77;100746.38;5071966;27;66413;-37
2021/11/15 05:08:23;;;;;;;;;;;;;;;30.69;64.23;100749.69;5069698;27;70163;-42
2021/11/15 05:10:53;;;;;;;;;;;;;;;30.70;63.90;100761.34;5073033;27;65677;-37
2021/11/15 05:13:23;;;;;;;;;;;;;;;30.72;63.63;100765.47;5075973;27;69259;-38
2021/11/15 05:15:54;;;;;;;;;;;;;;;30.73;63.61;100761.75;5071898;27;66316;-38
2021/11/15 05:18:24;;;;;;;;;;;;;;;30.76;63.65;100754.19;5075890;27;70326;-37
2021/11/15 05:20:55;;;;;;;;;;;;;;;30.78;63.38;100742.09;5074105;27;67189;-37
2021/11/15 05:23:27;;;;;;;;;;;;;;;30.80;63.58;100739.22;5074027;27;69974;-38
2021/11/15 05:25:57;;;;;;;;;;;;;;;30.82;63.46;100737.94;5068749;27;65961;-38
2021/11/15 05:28:28;;;;;;;;;;;;;;;30.77;63.38;100723.38;5075614;27;69851;-36
2021/11/15 05:30:58;;;;;;;;;;;;;;;30.85;63.83;100721.25;5070989;27;66570;-36
2021/11/15 05:33:29;;;;;;;;;;;;;;;30.82;63.76;100716.28;5073777;27;69631;-38
2021/11/15 05:35:59;;;;;;;;;;;;;;;30.89;63.34;100716.19;5071192;27;65908;-37
2021/11/15 05:38:29;;;;;;;;;;;;;;;30.90;63.84;100712.44;5074659;27;69568;-35
2021/11/15 05:41:00;;;;;;;;;;;;;;;30.91;64.00;100709.50;5065680;27;67127;-35
2021/11/15 05:43:30;;;;;;;;;;;;;;;30.92;63.80;100704.91;5066806;27;69152;-35
2021/11/15 05:46:01;;;;;;;;;;;;;;;30.93;63.88;100698.47;5065891;27;65685;-35
2021/11/15 05:48:31;;;;;;;;;;;;;;;30.94;63.72;100691.97;5068093;27;69819;-36
2021/11/15 05:51:02;;;;;;;;;;;;;;;30.95;63.54;100682.78;5070148;27;65756;-34
2021/11/15 05:53:34;;;;;;;;;;;;;;;30.97;63.33;100675.25;5070138;27;70191;-35
2021/11/15 05:56:06;;;;;;;;;;;;;;;30.98;63.65;100676.09;5071565;27;66223;-35
2021/11/15 05:58:36;;;;;;;;;;;;;;;30.99;63.71;100670.47;5073554;28;69653;-35
2021/11/15 06:01:07;;;;;;;;;;;;;;;31.00;63.35;100669.41;5074598;28;66862;-34
2021/11/15 06:03:37;;;;;;;;;;;;;;;31.02;63.11;100661.06;5068139;27;69333;-35
2021/11/15 06:06:08;;;;;;;;;;;;;;;31.04;63.35;100659.78;5060082;27;65798;-34
2021/11/15 06:08:38;;;;;;;;;;;;;;;31.05;63.15;100649.75;5069468;27;69222;-35
2021/11/15 06:11:08;;;;;;;;;;;;;;;31.06;63.31;100635.16;5070689;27;65705;-35
2021/11/15 06:13:38;;;;;;;;;;;;;;;31.08;63.29;100636.59;5064356;27;70574;-35
2021/11/15 06:16:09;;;;;;;;;;;;;;;31.10;63.63;100629.06;5071765;27;66570;-35
2021/11/15 06:18:41;;;;;;;;;;;;;;;31.11;63.16;100621.75;5069974;27;70207;-34
2021/11/15 06:21:12;;;;;;;;;;;;;;;31.14;63.04;100624.81;5071416;27;64966;-35
2021/11/15 06:23:42;;;;;;;;;;;;;;;31.16;63.39;100620.00;5074340;27;70244;-35
2021/11/15 06:26:13;;;;;;;;;;;;;;;31.20;63.05;100614.13;5074762;27;67104;-35
2021/11/15 06:28:46;;;;;;;;;;;;;;;31.22;63.66;100614.75;5070651;27;70501;-35
2021/11/15 06:31:18;;;;;;;;;;;;;;;31.21;63.35;100603.09;5069652;27;66221;-35
2021/11/15 06:33:49;;;;;;;;;;;;;;;31.25;63.31;100606.16;5075530;27;70109;-35
2021/11/15 06:36:22;;;;;;;;;;;;;;;31.26;63.44;100602.38;5073683;27;66241;-35
2021/11/15 06:38:58;;;;;;;;;;;;;;;31.28;63.18;100592.13;5078587;27;70118;-34
2021/11/15 06:41:29;;;;;;;;;;;;;;;31.29;63.34;100575.66;5074222;27;65593;-35
2021/11/15 06:43:59;;;;;;;;;;;;;;;31.31;63.03;100567.28;5077079;27;70018;-35
2021/11/15 06:46:30;;;;;;;;;;;;;;;31.34;63.02;100569.53;5076409;27;66816;-34
2021/11/15 06:49:00;;;;;;;;;;;;;;;31.35;63.27;100549.53;5076554;27;69158;-34
2021/11/15 06:51:38;;;;;;;;;;;;;;;31.38;63.10;100554.50;5077249;27;66323;-34
2021/11/15 06:54:14;;;;;;;;;;;;;;;31.41;63.33;100551.31;5076570;27;69965;-34
2021/11/15 06:56:46;;;;;;;;;;;;;;;31.44;63.20;100540.03;5077333;27;66447;-35
2021/11/15 06:59:19;;;;;;;;;;;;;;;31.47;63.18;100534.13;5076577;27;69923;-35
2021/11/15 07:01:52;;;;;;;;;;;;;;;31.50;63.14;100532.84;5074515;27;65817;-34
2021/11/15 07:04:23;;;;;;;;;;;;;;;31.53;63.23;100535.91;5077918;27;70412;-36
2021/11/15 07:07:01;;;;;;;;;;;;;;;31.56;62.91;100532.72;5077626;27;66701;-35
2021/11/15 07:09:37;;;;;;;;;;;;;;;31.59;62.97;100526.88;5072494;27;69829;-35
2021/11/15 07:12:20;;;;;;;;;;;;;;;31.61;63.35;100519.28;5058731;28;65582;-35
2021/11/15 07:15:04;;;;;;;;;;;;;;;31.65;62.90;100518.81;5075450;27;69741;-35
2021/11/15 07:18:05;;;;;;;;;;;;;;;31.68;63.09;100521.06;5096537;27;43767;-36
2021/11/15 07:20:49;;;;;;;;;;;;;;;31.70;62.86;100511.63;5090722;27;70070;-36
2021/11/15 07:23:32;;;;;;;;;;;;;;;31.72;62.87;100503.28;5088069;27;66673;-39
2021/11/15 07:26:07;;;;;;;;;;;;;;;31.74;62.67;100507.41;5089534;27;70268;-36
2021/11/15 07:28:52;;;;;;;;;;;;;;;31.77;62.49;100500.69;5090132;27;66142;-37
2021/11/15 07:31:28;;;;;;;;;;;;;;;31.78;62.61;100496.91;5091552;27;69953;-36
2021/11/15 07:34:16;;;;;;;;;;;;;;;31.81;62.42;100485.59;5092781;27;66438;-36
2021/11/15 07:37:04;;;;;;;;;;;;;;;31.83;62.17;100495.13;5088988;27;69968;-36
2021/11/15 07:39:52;;;;;;;;;;;;;;;31.86;62.00;100493.03;5083965;27;66578;-37
2021/11/15 07:42:22;;;;;;;;;;;;;;;31.87;62.16;100500.09;5091238;27;69828;-36
2021/11/15 07:44:57;;;;;;;;;;;;;;;31.90;62.04;100499.63;5076831;27;65447;-36
2021/11/15 07:47:28;;;;;;;;;;;;;;;31.92;62.06;100492.09;5092419;27;69904;-38
2021/11/15 07:49:59;;;;;;;;;;;;;;;31.93;61.84;100486.47;5087800;27;66559;-38
2021/11/15 07:52:34;;;;;;;;;;;;;;;31.95;61.38;100492.44;5089772;27;69226;-39
2021/11/15 07:55:08;;;;;;;;;;;;;;;31.96;61.62;100475.13;5088181;27;66636;-37
2021/11/15 07:57:41;;;;;;;;;;;;;;;31.98;61.83;100480.31;5090229;27;69843;-37
2021/11/15 08:00:17;;;;;;;;;;;;;;;31.99;61.60;100477.38;5091015;27;65696;-36
2021/11/15 08:02:48;;;;;;;;;;;;;;;32.02;61.40;100482.31;5084031;27;70727;-37
2021/11/15 08:05:23;;;;;;;;;;;;;;;32.04;61.62;100485.63;5085738;27;65686;-36
2021/11/15 08:07:54;;;;;;;;;;;;;;;32.04;61.26;100477.47;5090289;27;69816;-37
2021/11/15 08:10:27;;;;;;;;;;;;;;;32.08;60.96;100490.56;5083190;27;65550;-37
2021/11/15 08:12:58;;;;;;;;;;;;;;;32.09;61.21;100486.78;5088657;27;70040;-36
2021/11/15 08:15:29;;;;;;;;;;;;;;;32.10;61.26;100486.56;5090596;27;65889;-36
2021/11/15 08:18:03;;;;;;;;;;;;;;;32.08;60.86;100485.97;5091975;27;70368;-36
2021/11/15 08:20:41;;;;;;;;;;;;;;;32.12;61.14;100502.59;5090459;27;65727;-37
2021/11/15 08:23:18;;;;;;;;;;;;;;;32.14;61.18;100500.47;5084491;27;70662;-38
2021/11/15 08:26:12;;;;;;;;;;;;;;;32.15;60.99;100513.81;5086754;27;66410;-36
2021/11/15 08:28:43;;;;;;;;;;;;;;;32.15;61.01;100526.53;5080687;27;70772;-38
2021/11/15 08:31:16;;;;;;;;;;;;;;;32.16;61.02;100526.31;5076313;28;67111;-36
2021/11/15 08:33:49;;;;;;;;;;;;;;;32.17;60.83;100530.66;5075146;27;70111;-37
2021/11/15 08:36:27;;;;;;;;;;;;;;;31.94;61.07;100488.09;5072217;27;66589;-36
2021/11/15 08:39:05;;;;;;;;;;;;;;;32.19;60.86;100519.56;5070406;27;70200;-37
2021/11/15 08:41:40;;;;;;;;;;;;;;;32.19;60.75;100520.41;5073024;27;66649;-36
2021/11/15 08:44:10;;;;;;;;;;;;;;;32.20;60.71;100522.03;5077859;27;69722;-36
2021/11/15 08:46:50;;;;;;;;;;;;;;;32.20;60.70;100515.78;5072480;27;65866;-37
2021/11/15 08:49:23;;;;;;;;;;;;;;;32.21;60.75;100517.47;5077782;27;69983;-37
2021/11/15 08:52:00;;;;;;;;;;;;;;;32.20;60.72;100513.06;5074501;27;66524;-37
2021/11/15 08:54:36;;;;;;;;;;;;;;;32.07;60.66;100499.75;5077879;27;70285;-37
2021/11/15 08:57:08;;;;;;;;;;;;;;;32.19;60.90;100511.44;5078244;27;65730;-38
2021/11/15 08:59:42;;;;;;;;;;;;;;;32.21;60.75;100517.47;5073603;27;70178;-38
2021/11/15 09:02:13;;;;;;;;;;;;;;;32.20;60.74;100515.78;5078213;27;65666;-35
2021/11/15 09:04:44;;;;;;;;;;;;;;;32.18;60.46;100512.47;5076149;27;70185;-36
2021/11/15 09:07:15;;;;;;;;;;;;;;;32.17;60.81;100518.97;5077581;27;66030;-37
2021/11/15 09:09:45;;;;;;;;;;;;;;;32.17;60.82;100518.97;5076558;27;70494;-37
2021/11/15 09:12:18;;;;;;;;;;;;;;;32.17;60.95;100516.25;5074694;27;66748;-37
2021/11/15 09:14:48;;;;;;;;;;;;;;;32.16;60.75;100518.16;5076253;27;69655;-35
2021/11/15 09:17:20;;;;;;;;;;;;;;;32.13;60.78;100515.94;5076329;27;66172;-36
2021/11/15 09:19:50;;;;;;;;;;;;;;;32.14;60.88;100514.03;5074094;27;69033;-35
2021/11/15 09:22:21;;;;;;;;;;;;;;;32.13;60.81;100515.09;5076828;27;66173;-34
2021/11/15 09:24:51;;;;;;;;;;;;;;;32.11;60.78;100518.03;5076073;27;69692;-35
2021/11/15 09:27:26;;;;;;;;;;;;;;;32.10;61.15;100510.16;5073673;27;66058;-35
2021/11/15 09:30:08;;;;;;;;;;;;;;;32.09;60.83;100508.50;5055456;28;70417;-35
2021/11/15 09:32:40;;;;;;;;;;;;;;;32.08;61.10;100518.53;5075084;27;66594;-35
2021/11/15 09:35:11;;;;;;;;;;;;;;;32.08;61.07;100515.00;5074911;27;69813;-35
2021/11/15 09:37:41;;;;;;;;;;;;;;;32.08;61.18;100518.53;5076751;27;66500;-36
2021/11/15 09:40:12;;;;;;;;;;;;;;;32.05;61.04;100522.53;5072384;28;70752;-35
2021/11/15 09:42:42;;;;;;;;;;;;;;;32.05;60.83;100519.81;5077438;27;65378;-36
2021/11/15 09:45:12;;;;;;;;;;;;;;;32.04;60.70;100523.59;5076039;27;69660;-35
2021/11/15 09:47:43;;;;;;;;;;;;;;;32.03;60.77;100523.84;5073684;27;65687;-35
2021/11/15 09:50:15;;;;;;;;;;;;;;;32.01;60.96;100524.09;5074670;27;69234;-35
2021/11/15 09:52:45;;;;;;;;;;;;;;;32.01;61.14;100524.09;5076582;27;66499;-35
2021/11/15 09:55:16;;;;;;;;;;;;;;;32.00;61.18;100532.44;5073013;27;70475;-35
2021/11/15 09:57:48;;;;;;;;;;;;;;;31.99;60.94;100545.19;5070529;27;66123;-35
2021/11/15 10:00:23;;;;;;;;;;;;;;;31.97;60.76;100544.59;5074753;27;70638;-35
2021/11/15 10:02:53;;;;;;;;;;;;;;;31.97;60.93;100550.00;5077002;27;66702;-35
2021/11/15 10:05:28;;;;;;;;;;;;;;;31.96;61.06;100540.25;5076094;27;70216;-35
2021/11/15 10:08:04;;;;;;;;;;;;;;;31.95;61.04;100548.59;5075165;27;66302;-36
2021/11/15 10:10:44;;;;;;;;;;;;;;;31.94;61.21;100550.50;5076909;27;69040;-35
2021/11/15 10:13:15;;;;;;;;;;;;;;;31.80;61.31;100532.78;5074696;27;66118;-34
2021/11/15 10:15:51;;;;;;;;;;;;;;;31.92;61.43;100557.22;5075675;27;70176;-35
2021/11/15 10:18:33;;;;;;;;;;;;;;;31.91;61.23;100561.81;5074527;27;65519;-35
2021/11/15 10:21:08;;;;;;;;;;;;;;;31.88;61.38;100551.41;5071926;27;70733;-36
2021/11/15 10:23:42;;;;;;;;;;;;;;;31.87;61.19;100557.88;5076669;27;66962;-36
2021/11/15 10:26:20;;;;;;;;;;;;;;;31.87;61.38;100559.75;5073615;27;69579;-37
2021/11/15 10:28:53;;;;;;;;;;;;;;;31.84;61.38;100561.06;5074945;27;67093;-35
2021/11/15 10:31:25;;;;;;;;;;;;;;;31.84;61.26;100561.06;5068822;27;69188;-35
2021/11/15 10:33:55;;;;;;;;;;;;;;;31.82;61.23;100558.59;5068548;27;66827;-34
2021/11/15 10:36:45;;;;;;;;;;;;;;;31.82;61.45;100558.59;5071276;27;69940;-35
2021/11/15 10:39:16;;;;;;;;;;;;;;;31.83;61.70;100560.25;5072159;27;66769;-35
2021/11/15 10:42:16;;;;;;;;;;;;;;;31.82;62.08;100569.44;5076170;27;69276;-36
2021/11/15 10:44:51;;;;;;;;;;;;;;;31.82;62.59;100568.63;5067809;27;66153;-35
2021/11/15 10:47:27;;;;;;;;;;;;;;;31.81;63.07;100566.94;5059178;28;69414;-35
2021/11/15 10:50:03;;;;;;;;;;;;;;;31.80;62.99;100570.75;5075776;27;65302;-35
2021/11/15 10:52:36;;;;;;;;;;;;;;;31.78;63.12;100589.94;5075465;27;70142;-36
2021/11/15 10:55:07;;;;;;;;;;;;;;;31.78;63.31;100589.94;5072973;27;66049;-34
2021/11/15 10:57:40;;;;;;;;;;;;;;;31.79;63.44;100607.06;5075408;27;70264;-36
2021/11/15 11:00:13;;;;;;;;;;;;;;;31.79;63.44;100617.91;5068725;27;66342;-34
2021/11/15 11:02:48;;;;;;;;;;;;;;;31.77;63.97;100637.13;5072254;27;70915;-35
2021/11/15 11:05:18;;;;;;;;;;;;;;;31.67;63.54;100636.03;5075622;27;65621;-36
2021/11/15 11:07:50;;;;;;;;;;;;;;;31.76;63.71;100668.03;5075588;27;70365;-35
2021/11/15 11:10:21;;;;;;;;;;;;;;;31.76;63.91;100678.00;5075946;27;66224;-35
2021/11/15 11:13:00;;;;;;;;;;;;;;;31.76;63.88;100688.88;5073932;27;69857;-34
2021/11/15 11:15:38;;;;;;;;;;;;;;;31.76;64.05;100697.00;5072985;27;66086;-35
2021/11/15 11:26:34;;;;;;;;;;;;;;;31.69;64.11;100712.56;5073512;27;65587;-35
2021/11/15 11:29:07;;;;;;;;;;;;;;;31.67;64.20;100701.09;5073620;27;69336;-36
2021/11/15 11:31:39;;;;;;;;;;;;;;;31.67;64.52;100707.34;5070988;27;66462;-35
2021/11/15 11:34:10;;;;;;;;;;;;;;;31.67;64.25;100706.53;5075279;27;69892;-35
2021/11/15 11:36:40;;;;;;;;;;;;;;;31.66;64.26;100713.03;5071714;27;66746;-34
2021/11/15 11:39:11;;;;;;;;;;;;;;;31.38;64.19;100673.75;5074179;27;70414;-35
2021/11/15 11:41:43;;;;;;;;;;;;;;;31.62;64.30;100718.06;5073793;27;67096;-38
2021/11/15 11:44:13;;;;;;;;;;;;;;;31.61;64.67;100719.13;5076286;27;69312;-36
2021/11/15 11:46:43;;;;;;;;;;;;;;;31.55;65.13;100710.03;5077929;27;66684;-35
2021/11/15 11:49:17;;;;;;;;;;;;;;;31.28;66.58;100708.66;5077073;27;70112;-35
2021/11/15 11:51:49;;;;;;;;;;;;;;;31.11;67.57;100703.84;5077602;27;65920;-36
2021/11/15 11:54:22;;;;;;;;;;;;;;;31.07;68.41;100710.78;5074406;27;69520;-36
2021/11/15 11:57:04;;;;;;;;;;;;;;;30.99;69.02;100711.09;5075412;27;65711;-37
2021/11/15 11:59:36;;;;;;;;;;;;;;;30.92;69.02;100715.75;5073091;27;70125;-35
2021/11/15 12:02:09;;;;;;;;;;;;;;;30.87;69.84;100712.88;5075007;27;65711;-36
2021/11/15 12:05:00;;;;;;;;;;;;;;;30.91;69.14;100724.94;5073146;27;69982;-35
2021/11/15 12:07:32;;;;;;;;;;;;;;;30.86;69.81;100716.63;5072649;27;65553;-37
2021/11/15 12:10:11;;;;;;;;;;;;;;;30.79;69.42;100718.56;5040009;27;69286;-38
2021/11/15 12:12:52;;;;;;;;;;;;;;;30.76;69.77;100706.31;5068099;27;64359;-38
2021/11/15 12:15:34;;;;;;;;;;;;;;;30.70;69.33;100713.44;5055520;27;68537;-35
2021/11/15 12:18:14;;;;;;;;;;;;;;;30.68;69.54;100715.53;5075348;28;66622;-36
2021/11/15 12:21:05;;;;;;;;;;;;;;;30.66;69.34;100731.16;5073981;27;70182;-36
2021/11/15 12:23:35;;;;;;;;;;;;;;;30.60;70.42;100726.66;5075600;27;66028;-35
2021/11/15 12:26:10;;;;;;;;;;;;;;;30.64;70.00;100740.56;5073012;27;70524;-35
2021/11/15 12:28:45;;;;;;;;;;;;;;;30.58;69.85;100749.56;5071151;27;66239;-35
2021/11/15 12:31:36;;;;;;;;;;;;;;;30.57;69.85;100759.59;5072425;28;70048;-38
2021/11/15 12:34:07;;;;;;;;;;;;;;;30.57;69.69;100767.72;5072185;27;66108;-35
2021/11/15 12:36:43;;;;;;;;;;;;;;;30.55;69.89;100767.09;5055852;28;69737;-36
2021/11/15 12:39:18;;;;;;;;;;;;;;;30.53;69.65;100771.88;5074856;27;66439;-35
2021/11/15 12:41:54;;;;;;;;;;;;;;;30.52;70.13;100775.66;5079030;27;70021;-37
2021/11/15 12:44:26;;;;;;;;;;;;;;;30.53;70.04;100777.31;5078442;27;67118;-35
2021/11/15 12:47:17;;;;;;;;;;;;;;;30.53;70.88;100773.78;5074629;27;70260;-35
2021/11/15 12:49:50;;;;;;;;;;;;;;;30.53;70.52;100782.72;5077085;27;66110;-35
2021/11/15 12:52:22;;;;;;;;;;;;;;;30.53;71.08;100781.91;5077391;27;70471;-36
2021/11/15 12:54:53;;;;;;;;;;;;;;;30.53;70.93;100793.53;5075981;27;66843;-35
2021/11/15 12:57:24;;;;;;;;;;;;;;;30.54;70.97;100797.94;5073072;27;70040;-35
2021/11/15 12:59:54;;;;;;;;;;;;;;;30.48;71.38;100801.53;5078433;27;65813;-35
2021/11/15 13:02:26;;;;;;;;;;;;;;;30.40;69.93;100809.91;5078812;27;69240;-35
2021/11/15 13:04:58;;;;;;;;;;;;;;;30.21;66.96;100811.66;5074231;27;67013;-35
2021/11/15 13:07:40;;;;;;;;;;;;;;;29.94;64.15;100819.06;5064986;27;69569;-35
2021/11/15 13:10:32;;;;;;;;;;;;;;;29.73;61.48;100809.41;5079793;27;65477;-36
2021/11/15 13:13:14;;;;;;;;;;;;;;;29.49;59.15;100814.44;5077052;27;69320;-35
2021/11/15 13:16:12;;;;;;;;;;;;;;;29.32;57.58;100824.03;5078898;27;66560;-36
2021/11/15 13:18:52;;;;;;;;;;;;;;;29.18;56.50;100815.13;5063140;27;70157;-36
2021/11/15 13:21:28;;;;;;;;;;;;;;;29.01;55.07;100813.88;5082255;27;66261;-35
2021/11/15 13:24:14;;;;;;;;;;;;;;;28.93;56.60;100829.25;5063572;27;69840;-37
2021/11/15 13:26:59;;;;;;;;;;;;;;;28.89;56.32;100819.06;5077420;27;66897;-38
2021/11/15 13:29:44;;;;;;;;;;;;;;;28.81;56.82;100820.13;5073276;27;70291;-39
2021/11/15 13:43:03;;;;;;;;;;;;;;;28.47;58.27;100815.72;5075560;27;69913;-37
2021/11/15 13:45:54;;;;;;;;;;;;;;;28.46;55.93;100817.59;5078461;27;66274;-36
2021/11/15 13:48:42;;;;;;;;;;;;;;;28.39;53.91;100819.44;5073099;27;70606;-36